메인 페이지
METAR-TAF:

METAR-TAF

공항 :

극북의 땅, 그린란드

위도: 76-32N, 경도: 068-42W, 고도: 77m

현재 날씨관측

예보는 1 시간 0분 전, 07:56시(UTC)에 발표되었습니다.
남동6kt
온도 -20°C
습도 64%
기압 1007 hPa
시정 10km 이상
맑음

METAR: BGTL 210756Z AUTO 13006KT 9999 CLR M20/M25 A2974 RMK AO2 SLP062 T12041248 TSNO $

시각: 04:56 (08:56 UTC)

예보

예보는 14 시간 6분 전, 18:50시(UTC)에 발표되었습니다.
예보 대상 시간: 19일 18시부터 20일 24시까지 (UTC)
동남동6kt풍과 풍을 오가는
시정: 8000m
고도 200ft 상공 구름 보통
박무
일시적
19일 18시부터 19일 21시까지 (UTC)
고도 300ft 상공 구름 많음
전환 중
19일 21시부터 19일 22시까지 (UTC)
동남동6kt풍과 풍을 오가는
시정: 2202m
맑음

TAF: BGTL 191850Z 1918/2024 12006KT 8000 BR SCT002 QNH2998INS WND 100V170 TEMPO 1918/1921 BKN003 BECMG 1921/1922 12006KT 9999 NSW SKC QNH2998INS WND 100V170 TXM16/2014Z TNM25/1918Z LAST NO AMDS AFT 1920 NEXT 2202

4,000개 이상의 공항 관측 자료 및 예보 (METAR 및 TAF 보고).

지도상에서 검색 가능한 기상관측소가 노란 점과 빨간 점으로 표시되어 있습니다.

기상관측소 명을 보려면 표시 위로 마우스를 이동하세요.

날씨 관측과 예보를 보려면 클릭하세요.

지도 변경 : 확대하려면 엑스 표시가 있는 녹색 버튼, 축소하려면 빼기 표시가 있는 녹색 버튼, 다음 페이지의 지도를 보려면 녹색 화살표를 클릭하세요.


METAR-TAF: